Monteview, Idaho
Current Conditions -  °F | °C
As of 10:53 PM on Friday 24 Oct 2014 (Local Time) from KRXE Reporting Station
Clear Clear  
Wind Chill: 39°   Ceiling: Unl
Heat Index: 43°   Visibility: 10mi
Dew Point: 31°   Wind: 6mph
Humidity: 62%   Direction: 20°NNE
Pressure: 30.12"   Gusts: NA
Location:  43.94°N, 112.54°W
Report Text: KRXE 250453Z AUTO 02005KT 10SM CLR 06/M01 A3012 RMK AO2 SLP190 T00611006
Loading
Personal Weather Stations






























Interactive Weather Map New forecast layout! Learn more

10-Day Weather Forecast

Advertisements
Track Severe Weather on mobile